createdAt,value
2018-09-20T00:00:36.378Z,56.00
2018-09-20T00:03:39.284Z,55.70
2018-09-20T00:06:42.191Z,55.80
2018-09-20T00:09:45.699Z,56.00
2018-09-20T00:12:48.622Z,56.40
2018-09-20T00:15:52.010Z,56.70
2018-09-20T00:18:55.463Z,56.20
2018-09-20T00:21:58.684Z,56.50
2018-09-20T00:25:01.648Z,56.60
2018-09-20T00:28:05.137Z,56.80
2018-09-20T00:31:08.153Z,56.40
2018-09-20T00:34:11.572Z,56.00
2018-09-20T00:37:14.510Z,56.30
2018-09-20T00:40:17.422Z,56.40
2018-09-20T00:43:20.917Z,56.70
2018-09-20T00:46:24.437Z,56.90
2018-09-20T00:49:27.899Z,56.50
2018-09-20T00:52:31.220Z,56.80
2018-09-20T00:55:34.678Z,56.80
2018-09-20T00:58:38.148Z,56.60
2018-09-20T01:01:40.995Z,56.60
2018-09-20T01:04:43.925Z,56.70
2018-09-20T01:07:46.806Z,56.80
2018-09-20T01:10:49.748Z,56.70
2018-09-20T01:13:53.345Z,56.80
2018-09-20T01:16:56.281Z,56.60
2018-09-20T01:19:59.197Z,57.00
2018-09-20T01:23:02.404Z,57.30
2018-09-20T01:26:06.122Z,57.00
2018-09-20T01:29:09.479Z,56.50
2018-09-20T01:32:12.424Z,56.70
2018-09-20T01:35:15.377Z,56.70
2018-09-20T01:38:18.312Z,57.00
2018-09-20T01:41:21.265Z,57.10
2018-09-20T01:44:24.666Z,57.10
2018-09-20T01:47:28.098Z,56.90
2018-09-20T01:50:31.161Z,57.40
2018-09-20T01:53:34.081Z,57.70
2018-09-20T01:56:37.005Z,57.50
2018-09-20T01:59:40.485Z,57.30
2018-09-20T02:02:43.394Z,57.30
2018-09-20T02:05:46.819Z,57.60
2018-09-20T02:08:50.398Z,57.60
2018-09-20T02:11:53.318Z,57.50
2018-09-20T02:14:56.258Z,57.30
2018-09-20T02:17:59.164Z,57.80
2018-09-20T02:21:02.071Z,57.90
2018-09-20T02:24:05.460Z,58.00
2018-09-20T02:27:08.419Z,57.70
2018-09-20T02:30:11.333Z,57.90
2018-09-20T02:33:14.831Z,58.30
2018-09-20T02:36:17.761Z,57.80
2018-09-20T02:39:20.746Z,57.80
2018-09-20T02:42:23.682Z,58.10
2018-09-20T02:45:27.039Z,58.20
2018-09-20T02:48:30.021Z,58.40
2018-09-20T02:51:32.871Z,58.50
2018-09-20T02:54:36.331Z,57.80
2018-09-20T02:57:39.262Z,58.10
2018-09-20T03:00:42.657Z,57.70
2018-09-20T03:03:45.562Z,57.80
2018-09-20T03:06:48.511Z,57.70
2018-09-20T03:09:51.469Z,57.90
2018-09-20T03:12:54.683Z,57.90
2018-09-20T03:15:57.596Z,57.60
2018-09-20T03:19:00.481Z,58.00
2018-09-20T03:22:03.929Z,58.20
2018-09-20T03:25:06.948Z,57.60
2018-09-20T03:28:09.870Z,57.50
2018-09-20T03:31:13.336Z,57.70
2018-09-20T03:34:16.249Z,58.20
2018-09-20T03:37:19.138Z,58.00
2018-09-20T03:40:22.042Z,57.70
2018-09-20T03:43:24.941Z,57.90
2018-09-20T03:46:27.854Z,57.50
2018-09-20T03:49:31.212Z,57.40
2018-09-20T03:52:34.658Z,57.30
2018-09-20T03:55:37.917Z,57.10
2018-09-20T03:58:41.460Z,57.00
2018-09-20T04:01:44.394Z,57.40
2018-09-20T04:04:47.302Z,57.80
2018-09-20T04:07:50.361Z,57.50
2018-09-20T04:10:53.300Z,57.80
2018-09-20T04:13:56.742Z,57.70
2018-09-20T04:16:59.656Z,58.00
2018-09-20T04:20:03.291Z,58.00
2018-09-20T04:23:07.081Z,58.20
2018-09-20T04:26:10.013Z,57.80
2018-09-20T04:29:12.930Z,57.70
2018-09-20T04:32:15.889Z,58.00
2018-09-20T04:35:18.821Z,57.90
2018-09-20T04:38:21.728Z,58.00
2018-09-20T04:41:24.605Z,58.10
2018-09-20T04:44:28.407Z,58.10
2018-09-20T04:47:31.358Z,58.00
2018-09-20T04:50:34.551Z,57.90
2018-09-20T04:53:38.038Z,58.10
2018-09-20T04:56:40.977Z,58.20
2018-09-20T05:00:15.073Z,58.30
2018-09-20T05:03:18.025Z,58.10
2018-09-20T05:06:21.528Z,58.40
2018-09-20T05:09:24.838Z,58.80
2018-09-20T05:12:28.393Z,58.70
2018-09-20T05:15:31.962Z,59.00
2018-09-20T05:18:35.263Z,58.80
2018-09-20T05:21:38.376Z,58.40
2018-09-20T05:24:41.282Z,58.30
2018-09-20T05:27:44.184Z,58.80
2018-09-20T05:30:47.109Z,58.80
2018-09-20T05:33:50.025Z,58.60
2018-09-20T05:36:52.922Z,58.50
2018-09-20T05:39:56.459Z,58.20
2018-09-20T05:42:59.485Z,57.80
2018-09-20T05:46:02.396Z,57.90
2018-09-20T05:49:06.078Z,58.30
2018-09-20T05:52:09.062Z,58.40
2018-09-20T05:55:12.328Z,57.80
2018-09-20T05:58:15.231Z,58.10
2018-09-20T06:01:18.853Z,58.30
2018-09-20T06:04:22.216Z,58.20
2018-09-20T06:07:27.364Z,58.50
2018-09-20T06:10:30.909Z,58.40
2018-09-20T06:13:33.815Z,59.20
2018-09-20T06:16:36.763Z,58.80
2018-09-20T06:19:40.335Z,58.70
2018-09-20T06:22:43.808Z,58.80
2018-09-20T06:25:47.277Z,59.10
2018-09-20T06:28:50.198Z,58.50
2018-09-20T06:31:53.836Z,58.50
2018-09-20T06:34:57.382Z,58.90
2018-09-20T06:38:00.293Z,59.00
2018-09-20T06:41:03.405Z,59.00
2018-09-20T06:44:06.399Z,59.00
2018-09-20T06:47:09.801Z,59.40
2018-09-20T06:50:12.778Z,58.90
2018-09-20T06:53:16.236Z,59.20
2018-09-20T06:56:19.186Z,59.00
2018-09-20T06:59:22.050Z,59.00
2018-09-20T07:02:24.931Z,59.10
2018-09-20T07:05:27.893Z,59.00
2018-09-20T07:08:30.800Z,58.50
2018-09-20T07:11:34.230Z,58.70
2018-09-20T07:14:37.645Z,59.10
2018-09-20T07:17:41.781Z,58.80
2018-09-20T07:20:45.086Z,58.50
2018-09-20T07:23:48.043Z,58.70
2018-09-20T07:26:51.472Z,58.90
2018-09-20T07:29:54.429Z,59.10
2018-09-20T07:32:57.389Z,59.40
2018-09-20T07:36:00.856Z,58.70
2018-09-20T07:39:06.666Z,58.50
2018-09-20T07:42:09.631Z,58.50
2018-09-20T07:45:13.184Z,58.40
2018-09-20T07:48:16.937Z,58.40
2018-09-20T07:51:20.588Z,58.30
2018-09-20T07:54:23.494Z,58.60
2018-09-20T07:57:28.588Z,58.80
2018-09-20T08:00:32.184Z,58.40
2018-09-20T08:03:35.123Z,58.50
2018-09-20T08:06:38.026Z,58.50
2018-09-20T08:09:40.962Z,58.30
2018-09-20T08:12:44.448Z,58.50
2018-09-20T08:15:48.221Z,58.20
2018-09-20T08:18:50.648Z,57.90
2018-09-20T08:21:53.863Z,58.10
2018-09-20T08:24:56.834Z,58.10
2018-09-20T08:27:59.818Z,58.00
2018-09-20T08:31:04.123Z,58.30
2018-09-20T08:34:07.640Z,58.10
2018-09-20T08:37:10.680Z,58.20
2018-09-20T08:40:13.912Z,57.70
2018-09-20T08:43:16.795Z,57.60
2018-09-20T08:46:20.130Z,57.70
2018-09-20T08:49:23.660Z,58.00
2018-09-20T08:52:26.677Z,57.50
2018-09-20T08:55:29.626Z,57.60
2018-09-20T08:58:33.447Z,57.80
2018-09-20T09:01:36.352Z,57.70
2018-09-20T09:04:39.339Z,57.50
2018-09-20T09:07:42.883Z,57.90
2018-09-20T09:10:46.282Z,57.60
2018-09-20T09:13:49.565Z,57.50
2018-09-20T09:16:52.524Z,57.60
2018-09-20T09:19:55.913Z,57.80
2018-09-20T09:22:58.798Z,57.80
2018-09-20T09:26:01.763Z,57.60
2018-09-20T09:29:05.261Z,56.90
2018-09-20T09:32:08.214Z,56.40
2018-09-20T09:35:11.704Z,55.80
2018-09-20T09:38:14.651Z,56.00
2018-09-20T09:41:17.585Z,55.90
2018-09-20T09:44:21.046Z,55.80
2018-09-20T09:47:24.413Z,55.60
2018-09-20T09:50:27.348Z,55.30
2018-09-20T09:53:30.622Z,54.80
2018-09-20T09:56:34.028Z,54.20
2018-09-20T09:59:37.457Z,53.20
2018-09-20T10:02:40.918Z,52.70
2018-09-20T10:05:43.803Z,52.60
2018-09-20T10:08:46.753Z,53.00
2018-09-20T10:11:50.165Z,52.50
2018-09-20T10:14:53.094Z,51.60
2018-09-20T10:17:56.056Z,51.90
2018-09-20T10:20:59.596Z,51.70
2018-09-20T10:24:02.619Z,51.50
2018-09-20T10:27:05.498Z,51.70
2018-09-20T10:30:08.454Z,52.30
2018-09-20T10:33:11.932Z,52.20
2018-09-20T10:36:15.386Z,52.10
2018-09-20T10:39:18.293Z,52.60
2018-09-20T10:42:21.660Z,51.80
2018-09-20T10:45:25.192Z,51.50
2018-09-20T10:48:28.145Z,51.00
2018-09-20T10:51:31.165Z,51.40
2018-09-20T10:54:34.542Z,51.20
2018-09-20T10:57:37.485Z,52.00
2018-09-20T11:00:40.821Z,51.40
2018-09-20T11:03:43.773Z,51.20
2018-09-20T11:06:47.201Z,50.10
2018-09-20T11:09:50.158Z,50.30
2018-09-20T11:12:53.065Z,49.50
2018-09-20T11:15:56.062Z,51.10
2018-09-20T11:18:59.576Z,49.60
2018-09-20T11:22:02.768Z,49.40
2018-09-20T11:25:06.358Z,48.80
2018-09-20T11:28:09.869Z,49.30
2018-09-20T11:31:12.782Z,49.20
2018-09-20T11:34:15.661Z,49.00
2018-09-20T11:37:18.562Z,47.50
2018-09-20T11:40:21.489Z,47.50
2018-09-20T11:43:24.402Z,47.60
2018-09-20T11:46:27.965Z,47.70
2018-09-20T11:49:30.954Z,48.80
2018-09-20T11:52:33.902Z,47.50
2018-09-20T11:55:37.387Z,47.80
2018-09-20T11:58:40.313Z,46.50
2018-09-20T12:01:43.882Z,47.00
2018-09-20T12:04:46.782Z,47.00
2018-09-20T12:07:49.722Z,47.10
2018-09-20T12:10:53.274Z,46.10
2018-09-20T12:13:56.200Z,45.80
2018-09-20T12:16:59.803Z,47.50
2018-09-20T12:20:02.905Z,46.50
2018-09-20T12:23:06.372Z,45.60
2018-09-20T12:26:09.299Z,45.30
2018-09-20T12:29:12.675Z,45.00
2018-09-20T12:32:15.701Z,45.60
2018-09-20T12:35:18.689Z,44.70
2018-09-20T12:38:22.124Z,44.40
2018-09-20T12:41:25.084Z,44.50
2018-09-20T12:44:28.473Z,44.00
2018-09-20T12:47:32.305Z,43.70
2018-09-20T12:50:35.283Z,43.70
2018-09-20T12:53:38.218Z,43.10
2018-09-20T12:56:41.184Z,42.80
2018-09-20T12:59:44.142Z,42.10
2018-09-20T13:02:47.103Z,42.50
2018-09-20T13:05:50.090Z,41.20
2018-09-20T13:08:53.553Z,42.40
2018-09-20T13:11:56.929Z,43.00
2018-09-20T13:14:59.846Z,41.90
2018-09-20T13:18:02.858Z,42.20
2018-09-20T13:21:06.211Z,42.00
2018-09-20T13:24:09.456Z,42.10
2018-09-20T13:27:12.861Z,41.70
2018-09-20T13:30:15.808Z,42.10
2018-09-20T13:33:19.241Z,41.50
2018-09-20T13:36:22.208Z,42.10
2018-09-20T13:39:25.160Z,42.90
2018-09-20T13:42:28.130Z,40.60
2018-09-20T13:45:31.746Z,40.90
2018-09-20T13:48:35.268Z,39.60
2018-09-20T13:51:38.635Z,41.40
2018-09-20T13:54:41.593Z,41.50
2018-09-20T13:57:44.517Z,41.60
2018-09-20T14:00:47.490Z,42.20
2018-09-20T14:03:50.426Z,41.80
2018-09-20T14:06:53.745Z,40.90
2018-09-20T14:09:57.304Z,42.60
2018-09-20T14:13:00.830Z,40.80
2018-09-20T14:16:03.776Z,40.50
2018-09-20T14:19:07.735Z,40.00
2018-09-20T14:22:10.669Z,41.10
2018-09-20T14:25:13.600Z,40.10
2018-09-20T14:28:16.800Z,39.50
2018-09-20T14:31:19.701Z,41.10
2018-09-20T14:34:22.713Z,40.40
2018-09-20T14:37:26.622Z,41.20
2018-09-20T14:40:30.507Z,40.20
2018-09-20T14:43:33.473Z,40.40
2018-09-20T14:46:37.911Z,40.40
2018-09-20T14:49:40.898Z,38.70
2018-09-20T14:52:43.888Z,38.30
2018-09-20T14:55:47.010Z,39.40
2018-09-20T14:58:50.151Z,39.40
2018-09-20T15:01:53.124Z,41.00
2018-09-20T15:04:56.443Z,39.90
2018-09-20T15:07:59.928Z,38.70
2018-09-20T15:11:03.325Z,39.00
2018-09-20T15:14:06.349Z,39.10
2018-09-20T15:17:09.258Z,38.30
2018-09-20T15:20:12.648Z,38.80
2018-09-20T15:23:16.090Z,39.50
2018-09-20T15:26:19.474Z,39.60
2018-09-20T15:29:22.795Z,39.90
2018-09-20T15:32:25.746Z,39.70
2018-09-20T15:35:28.655Z,41.20
2018-09-20T15:38:31.612Z,40.20
2018-09-20T15:41:35.073Z,40.70
2018-09-20T15:44:38.393Z,40.80
2018-09-20T15:47:41.298Z,40.60
2018-09-20T15:50:44.252Z,41.70
2018-09-20T15:53:47.181Z,43.80
2018-09-20T15:56:50.707Z,41.00
2018-09-20T15:59:54.397Z,41.20
2018-09-20T16:02:57.361Z,41.50
2018-09-20T16:06:00.806Z,40.70
2018-09-20T16:09:06.739Z,40.90
2018-09-20T16:12:10.194Z,40.90
2018-09-20T16:15:13.142Z,40.00
2018-09-20T16:18:16.588Z,40.80
2018-09-20T16:21:19.561Z,40.40
2018-09-20T16:24:22.475Z,41.20
2018-09-20T16:27:25.899Z,42.50
2018-09-20T16:31:11.714Z,42.20
2018-09-20T16:35:32.957Z,42.00
2018-09-20T16:38:50.747Z,42.30
2018-09-20T16:41:58.788Z,43.70
2018-09-20T16:45:01.920Z,44.50
2018-09-20T16:48:04.860Z,46.60
2018-09-20T16:51:07.853Z,47.60
2018-09-20T16:54:11.008Z,48.50
2018-09-20T16:57:13.905Z,47.80
2018-09-20T17:00:17.207Z,48.90
2018-09-20T17:03:21.081Z,49.20
2018-09-20T17:06:24.050Z,49.40
2018-09-20T17:09:27.057Z,49.50
2018-09-20T17:12:30.113Z,49.70
2018-09-20T17:15:33.071Z,50.10
2018-09-20T17:18:36.553Z,50.00
2018-09-20T17:21:39.510Z,50.50
2018-09-20T17:24:42.828Z,50.90
2018-09-20T17:27:45.841Z,51.50
2018-09-20T17:30:48.869Z,51.50
2018-09-20T17:33:52.658Z,51.00
2018-09-20T17:36:58.097Z,51.10
2018-09-20T17:40:02.121Z,51.20
2018-09-20T17:43:07.685Z,51.00
2018-09-20T17:46:11.341Z,51.20
2018-09-20T17:49:14.279Z,51.10
2018-09-20T17:52:17.896Z,50.90
2018-09-20T17:55:22.018Z,51.30
2018-09-20T17:58:26.628Z,51.40
2018-09-20T18:01:29.720Z,51.60
2018-09-20T18:04:33.278Z,51.80
2018-09-20T18:07:36.258Z,51.70
2018-09-20T18:10:40.330Z,52.10
2018-09-20T18:13:43.425Z,51.10
2018-09-20T18:16:46.449Z,51.20
2018-09-20T18:19:49.427Z,51.40
2018-09-20T18:22:54.950Z,51.50
2018-09-20T18:25:57.986Z,51.40
2018-09-20T18:29:00.959Z,51.40
2018-09-20T18:32:03.944Z,51.30
2018-09-20T18:35:07.499Z,51.30
2018-09-20T18:38:11.433Z,51.40
2018-09-20T18:41:14.468Z,49.80
2018-09-20T18:44:18.021Z,49.00
2018-09-20T18:47:21.004Z,49.00
2018-09-20T18:50:24.141Z,49.70
2018-09-20T18:53:27.142Z,49.00
2018-09-20T18:56:30.233Z,48.40
2018-09-20T18:59:33.179Z,47.40
2018-09-20T19:02:36.136Z,46.30
2018-09-20T19:05:39.108Z,48.10
2018-09-20T19:08:42.271Z,46.20
2018-09-20T19:11:45.305Z,46.90
2018-09-20T19:14:48.648Z,46.70
2018-09-20T19:17:52.066Z,45.20
2018-09-20T19:20:55.301Z,46.10
2018-09-20T19:23:58.832Z,45.50
2018-09-20T19:27:02.312Z,44.00
2018-09-20T19:30:06.475Z,44.20
2018-09-20T19:33:09.377Z,44.60
2018-09-20T19:36:12.894Z,44.70
2018-09-20T19:39:16.400Z,46.60
2018-09-20T19:42:19.453Z,45.10
2018-09-20T19:45:22.418Z,46.80
2018-09-20T19:48:25.429Z,47.20
2018-09-20T19:51:28.408Z,46.20
2018-09-20T19:54:31.338Z,45.50
2018-09-20T19:57:34.264Z,45.40
2018-09-20T20:01:03.029Z,45.20
2018-09-20T20:04:06.014Z,45.40
2018-09-20T20:07:09.068Z,45.20
2018-09-20T20:10:12.724Z,45.40
2018-09-20T20:13:16.661Z,44.60
2018-09-20T20:16:19.645Z,44.00
2018-09-20T20:19:22.650Z,47.20
2018-09-20T20:22:25.608Z,46.60
2018-09-20T20:25:29.003Z,48.90
2018-09-20T20:28:32.564Z,48.10
2018-09-20T20:31:35.467Z,48.20
2018-09-20T20:34:38.388Z,45.10
2018-09-20T20:37:41.962Z,45.00
2018-09-20T20:40:44.908Z,45.20
2018-09-20T20:43:47.846Z,45.40
2018-09-20T20:46:50.797Z,45.20
2018-09-20T20:49:54.102Z,45.00
2018-09-20T20:52:57.074Z,45.10
2018-09-20T20:56:00.415Z,45.00
2018-09-20T20:59:03.410Z,45.70
2018-09-20T21:02:06.356Z,45.30
2018-09-20T21:05:09.826Z,46.70
2018-09-20T21:08:12.761Z,44.80
2018-09-20T21:11:16.046Z,46.50
2018-09-20T21:14:19.368Z,44.60
2018-09-20T21:17:22.369Z,44.90
2018-09-20T21:20:25.272Z,44.50
2018-09-20T21:23:28.914Z,45.30
2018-09-20T21:26:32.398Z,45.00
2018-09-20T21:29:35.725Z,45.10
2018-09-20T21:32:38.747Z,44.60
2018-09-20T21:35:43.171Z,45.10
2018-09-20T21:38:46.087Z,45.50
2018-09-20T21:41:49.502Z,45.30
2018-09-20T21:44:53.132Z,45.10
2018-09-20T21:47:56.627Z,45.00
2018-09-20T21:51:01.151Z,45.00
2018-09-20T21:54:04.169Z,45.90
2018-09-20T21:57:07.151Z,45.90
2018-09-20T22:00:10.098Z,45.60
2018-09-20T22:03:13.017Z,45.60
2018-09-20T22:06:15.929Z,45.90
2018-09-20T22:09:18.809Z,45.70
2018-09-20T22:12:21.738Z,45.70
2018-09-20T22:15:25.678Z,46.30
2018-09-20T22:18:28.676Z,46.30
2018-09-20T22:21:31.633Z,46.50
2018-09-20T22:24:34.493Z,46.50
2018-09-20T22:27:37.549Z,46.60
2018-09-20T22:30:40.378Z,46.70
2018-09-20T22:33:43.282Z,46.50
2018-09-20T22:36:46.149Z,46.50
2018-09-20T22:39:49.130Z,46.60
2018-09-20T22:42:52.010Z,47.00
2018-09-20T22:45:54.978Z,46.90
2018-09-20T22:48:57.892Z,46.70
2018-09-20T22:52:00.807Z,47.00
2018-09-20T22:55:03.797Z,47.10
2018-09-20T22:58:06.777Z,47.10
2018-09-20T23:01:14.275Z,47.40
2018-09-20T23:04:17.193Z,47.40
2018-09-20T23:07:20.140Z,47.40
2018-09-20T23:10:23.075Z,47.60
2018-09-20T23:13:25.987Z,47.40
2018-09-20T23:16:28.924Z,48.20
2018-09-20T23:19:31.920Z,47.70
2018-09-20T23:22:34.804Z,47.80
2018-09-20T23:25:37.710Z,47.90
2018-09-20T23:28:40.665Z,48.00
2018-09-20T23:31:43.873Z,48.40
2018-09-20T23:34:46.715Z,48.30
2018-09-20T23:37:49.602Z,48.70
2018-09-20T23:40:52.506Z,48.40
2018-09-20T23:43:55.458Z,48.90
2018-09-20T23:46:58.358Z,48.80
2018-09-20T23:50:01.326Z,48.70
2018-09-20T23:53:04.341Z,48.70
2018-09-20T23:56:07.302Z,49.00
2018-09-20T23:59:10.222Z,49.00
